sensor_id;sensor_type;location;lat;lon;timestamp;P1;durP1;ratioP1;P2;durP2;ratioP2
74967;SDS011;63523;51.880;12.630;2023-03-12T00:02:09;4.97;;;0.90;;
74967;SDS011;63523;51.880;12.630;2023-03-12T00:04:34;5.15;;;0.75;;
74967;SDS011;63523;51.880;12.630;2023-03-12T00:07:01;3.97;;;0.70;;
74967;SDS011;63523;51.880;12.630;2023-03-12T00:09:27;5.10;;;0.60;;
74967;SDS011;63523;51.880;12.630;2023-03-12T00:11:52;5.10;;;0.87;;
74967;SDS011;63523;51.880;12.630;2023-03-12T00:14:18;7.00;;;0.73;;
74967;SDS011;63523;51.880;12.630;2023-03-12T00:16:43;3.97;;;0.80;;
74967;SDS011;63523;51.880;12.630;2023-03-12T00:19:10;3.93;;;0.60;;
74967;SDS011;63523;51.880;12.630;2023-03-12T00:21:36;6.25;;;0.60;;
74967;SDS011;63523;51.880;12.630;2023-03-12T00:24:02;8.20;;;1.20;;
74967;SDS011;63523;51.880;12.630;2023-03-12T00:26:28;5.72;;;1.02;;
74967;SDS011;63523;51.880;12.630;2023-03-12T00:28:53;4.87;;;0.90;;
74967;SDS011;63523;51.880;12.630;2023-03-12T00:31:20;6.93;;;1.00;;
74967;SDS011;63523;51.880;12.630;2023-03-12T00:33:48;4.63;;;0.70;;
74967;SDS011;63523;51.880;12.630;2023-03-12T00:36:14;4.25;;;0.63;;
74967;SDS011;63523;51.880;12.630;2023-03-12T00:38:41;5.93;;;1.00;;
74967;SDS011;63523;51.880;12.630;2023-03-12T00:41:06;5.25;;;0.90;;
74967;SDS011;63523;51.880;12.630;2023-03-12T00:43:32;5.47;;;1.07;;
74967;SDS011;63523;51.880;12.630;2023-03-12T00:45:57;6.10;;;1.20;;
74967;SDS011;63523;51.880;12.630;2023-03-12T00:48:23;5.97;;;1.37;;
74967;SDS011;63523;51.880;12.630;2023-03-12T00:50:49;7.50;;;1.05;;
74967;SDS011;63523;51.880;12.630;2023-03-12T00:53:15;7.90;;;1.20;;
74967;SDS011;63523;51.880;12.630;2023-03-12T00:55:40;7.57;;;1.03;;
74967;SDS011;63523;51.880;12.630;2023-03-12T00:58:06;7.00;;;1.30;;
74967;SDS011;63523;51.880;12.630;2023-03-12T01:00:31;8.53;;;1.20;;
74967;SDS011;63523;51.880;12.630;2023-03-12T01:02:56;9.40;;;1.85;;
74967;SDS011;63523;51.880;12.630;2023-03-12T01:05:22;8.47;;;1.80;;
74967;SDS011;63523;51.880;12.630;2023-03-12T01:07:48;7.90;;;1.42;;
74967;SDS011;63523;51.880;12.630;2023-03-12T01:10:14;9.80;;;1.80;;
74967;SDS011;63523;51.880;12.630;2023-03-12T01:12:41;5.38;;;1.02;;
74967;SDS011;63523;51.880;12.630;2023-03-12T01:15:07;7.75;;;1.20;;
74967;SDS011;63523;51.880;12.630;2023-03-12T01:17:33;6.70;;;1.23;;
74967;SDS011;63523;51.880;12.630;2023-03-12T01:19:59;6.00;;;1.00;;
74967;SDS011;63523;51.880;12.630;2023-03-12T01:22:24;6.18;;;1.15;;
74967;SDS011;63523;51.880;12.630;2023-03-12T01:24:50;7.10;;;1.73;;
74967;SDS011;63523;51.880;12.630;2023-03-12T01:27:15;8.20;;;2.10;;
74967;SDS011;63523;51.880;12.630;2023-03-12T01:29:41;11.65;;;2.47;;
74967;SDS011;63523;51.880;12.630;2023-03-12T01:32:06;9.83;;;2.77;;
74967;SDS011;63523;51.880;12.630;2023-03-12T01:34:32;12.53;;;3.67;;
74967;SDS011;63523;51.880;12.630;2023-03-12T01:36:59;13.32;;;3.80;;
74967;SDS011;63523;51.880;12.630;2023-03-12T01:39:25;13.23;;;3.22;;
74967;SDS011;63523;51.880;12.630;2023-03-12T01:41:50;16.63;;;4.17;;
74967;SDS011;63523;51.880;12.630;2023-03-12T01:44:16;12.30;;;3.60;;
74967;SDS011;63523;51.880;12.630;2023-03-12T01:46:42;9.85;;;2.55;;
74967;SDS011;63523;51.880;12.630;2023-03-12T01:52:08;7.05;;;0.95;;
74967;SDS011;63523;51.880;12.630;2023-03-12T01:54:44;6.57;;;1.00;;
74967;SDS011;63523;51.880;12.630;2023-03-12T01:57:25;6.55;;;0.73;;
74967;SDS011;63523;51.880;12.630;2023-03-12T02:00:10;6.03;;;0.90;;
74967;SDS011;63523;51.880;12.630;2023-03-12T02:02:37;5.13;;;0.90;;
74967;SDS011;63523;51.880;12.630;2023-03-12T02:07:29;10.53;;;1.90;;
74967;SDS011;63523;51.880;12.630;2023-03-12T02:09:55;9.40;;;2.05;;
74967;SDS011;63523;51.880;12.630;2023-03-12T02:12:21;11.97;;;3.83;;
74967;SDS011;63523;51.880;12.630;2023-03-12T02:14:46;15.80;;;4.45;;
74967;SDS011;63523;51.880;12.630;2023-03-12T02:17:12;17.17;;;4.07;;
74967;SDS011;63523;51.880;12.630;2023-03-12T02:19:42;14.83;;;3.47;;
74967;SDS011;63523;51.880;12.630;2023-03-12T02:22:24;20.10;;;5.10;;
74967;SDS011;63523;51.880;12.630;2023-03-12T02:25:02;18.27;;;4.88;;
74967;SDS011;63523;51.880;12.630;2023-03-12T02:27:48;16.33;;;4.60;;
74967;SDS011;63523;51.880;12.630;2023-03-12T02:30:15;16.60;;;4.18;;
74967;SDS011;63523;51.880;12.630;2023-03-12T02:32:41;10.73;;;2.90;;
74967;SDS011;63523;51.880;12.630;2023-03-12T02:35:09;9.60;;;2.35;;
74967;SDS011;63523;51.880;12.630;2023-03-12T02:37:35;8.57;;;1.65;;
74967;SDS011;63523;51.880;12.630;2023-03-12T02:40:17;4.68;;;0.90;;
74967;SDS011;63523;51.880;12.630;2023-03-12T02:42:49;7.13;;;0.70;;
74967;SDS011;63523;51.880;12.630;2023-03-12T02:45:15;5.13;;;1.13;;
74967;SDS011;63523;51.880;12.630;2023-03-12T02:47:42;4.43;;;0.85;;
74967;SDS011;63523;51.880;12.630;2023-03-12T02:50:07;3.70;;;0.60;;
74967;SDS011;63523;51.880;12.630;2023-03-12T02:52:33;4.03;;;0.60;;
74967;SDS011;63523;51.880;12.630;2023-03-12T02:55:01;5.88;;;0.45;;
74967;SDS011;63523;51.880;12.630;2023-03-12T02:57:26;3.57;;;0.40;;
74967;SDS011;63523;51.880;12.630;2023-03-12T02:59:52;3.08;;;0.40;;
74967;SDS011;63523;51.880;12.630;2023-03-12T03:02:17;3.50;;;0.30;;
74967;SDS011;63523;51.880;12.630;2023-03-12T03:04:43;4.00;;;0.60;;
74967;SDS011;63523;51.880;12.630;2023-03-12T03:07:08;3.10;;;0.50;;
74967;SDS011;63523;51.880;12.630;2023-03-12T03:09:34;3.00;;;0.30;;
74967;SDS011;63523;51.880;12.630;2023-03-12T03:11:59;2.77;;;0.50;;
74967;SDS011;63523;51.880;12.630;2023-03-12T03:14:25;3.63;;;0.40;;
74967;SDS011;63523;51.880;12.630;2023-03-12T03:16:50;5.33;;;0.50;;
74967;SDS011;63523;51.880;12.630;2023-03-12T03:19:16;4.90;;;0.70;;
74967;SDS011;63523;51.880;12.630;2023-03-12T03:21:41;3.05;;;0.45;;
74967;SDS011;63523;51.880;12.630;2023-03-12T03:24:08;5.97;;;0.40;;
74967;SDS011;63523;51.880;12.630;2023-03-12T03:26:33;4.00;;;0.55;;
74967;SDS011;63523;51.880;12.630;2023-03-12T03:28:59;4.90;;;0.60;;
74967;SDS011;63523;51.880;12.630;2023-03-12T03:31:24;5.18;;;1.00;;
74967;SDS011;63523;51.880;12.630;2023-03-12T03:33:50;5.17;;;0.73;;
74967;SDS011;63523;51.880;12.630;2023-03-12T03:36:15;5.50;;;1.00;;
74967;SDS011;63523;51.880;12.630;2023-03-12T03:38:41;7.38;;;1.38;;
74967;SDS011;63523;51.880;12.630;2023-03-12T03:41:11;6.68;;;1.58;;
74967;SDS011;63523;51.880;12.630;2023-03-12T03:43:36;6.43;;;1.05;;
74967;SDS011;63523;51.880;12.630;2023-03-12T03:46:02;12.43;;;2.47;;
74967;SDS011;63523;51.880;12.630;2023-03-12T03:48:29;17.65;;;5.78;;
74967;SDS011;63523;51.880;12.630;2023-03-12T03:51:02;16.88;;;6.40;;
74967;SDS011;63523;51.880;12.630;2023-03-12T03:53:29;14.63;;;5.38;;
74967;SDS011;63523;51.880;12.630;2023-03-12T03:55:55;13.88;;;5.57;;
74967;SDS011;63523;51.880;12.630;2023-03-12T03:58:21;11.00;;;3.97;;
74967;SDS011;63523;51.880;12.630;2023-03-12T04:00:46;11.32;;;3.88;;
74967;SDS011;63523;51.880;12.630;2023-03-12T04:03:12;13.27;;;4.57;;
74967;SDS011;63523;51.880;12.630;2023-03-12T04:05:38;13.10;;;4.25;;
74967;SDS011;63523;51.880;12.630;2023-03-12T04:08:04;11.55;;;3.88;;
74967;SDS011;63523;51.880;12.630;2023-03-12T04:10:30;8.82;;;2.53;;
74967;SDS011;63523;51.880;12.630;2023-03-12T04:12:56;8.48;;;2.10;;
74967;SDS011;63523;51.880;12.630;2023-03-12T04:15:21;6.20;;;1.27;;
74967;SDS011;63523;51.880;12.630;2023-03-12T04:17:47;11.90;;;1.52;;
74967;SDS011;63523;51.880;12.630;2023-03-12T04:20:12;7.13;;;1.67;;
74967;SDS011;63523;51.880;12.630;2023-03-12T04:22:38;7.72;;;1.98;;
74967;SDS011;63523;51.880;12.630;2023-03-12T04:25:04;6.90;;;1.40;;
74967;SDS011;63523;51.880;12.630;2023-03-12T04:27:31;6.72;;;1.52;;
74967;SDS011;63523;51.880;12.630;2023-03-12T04:29:57;4.40;;;0.80;;
74967;SDS011;63523;51.880;12.630;2023-03-12T04:32:23;5.47;;;0.97;;
74967;SDS011;63523;51.880;12.630;2023-03-12T04:34:48;4.80;;;0.60;;
74967;SDS011;63523;51.880;12.630;2023-03-12T04:37:14;4.95;;;0.50;;
74967;SDS011;63523;51.880;12.630;2023-03-12T04:39:40;5.10;;;0.60;;
74967;SDS011;63523;51.880;12.630;2023-03-12T04:42:06;4.68;;;0.47;;
74967;SDS011;63523;51.880;12.630;2023-03-12T04:44:32;4.03;;;0.45;;
74967;SDS011;63523;51.880;12.630;2023-03-12T04:46:58;3.77;;;0.40;;
74967;SDS011;63523;51.880;12.630;2023-03-12T04:49:24;3.38;;;0.52;;
74967;SDS011;63523;51.880;12.630;2023-03-12T04:51:49;3.00;;;0.40;;
74967;SDS011;63523;51.880;12.630;2023-03-12T04:54:15;3.95;;;1.13;;
74967;SDS011;63523;51.880;12.630;2023-03-12T04:56:40;3.53;;;0.45;;
74967;SDS011;63523;51.880;12.630;2023-03-12T04:59:06;3.87;;;0.40;;
74967;SDS011;63523;51.880;12.630;2023-03-12T05:01:32;3.90;;;0.70;;
74967;SDS011;63523;51.880;12.630;2023-03-12T05:03:59;4.80;;;0.80;;
74967;SDS011;63523;51.880;12.630;2023-03-12T05:06:26;5.10;;;0.98;;
74967;SDS011;63523;51.880;12.630;2023-03-12T05:08:51;4.80;;;0.70;;
74967;SDS011;63523;51.880;12.630;2023-03-12T05:11:17;5.60;;;1.02;;
74967;SDS011;63523;51.880;12.630;2023-03-12T05:13:43;6.65;;;0.68;;
74967;SDS011;63523;51.880;12.630;2023-03-12T05:16:10;5.03;;;0.70;;
74967;SDS011;63523;51.880;12.630;2023-03-12T05:18:36;5.45;;;0.55;;
74967;SDS011;63523;51.880;12.630;2023-03-12T05:21:03;4.70;;;0.93;;
74967;SDS011;63523;51.880;12.630;2023-03-12T05:23:31;7.43;;;2.15;;
74967;SDS011;63523;51.880;12.630;2023-03-12T05:25:57;8.70;;;2.27;;
74967;SDS011;63523;51.880;12.630;2023-03-12T05:28:22;7.30;;;1.77;;
74967;SDS011;63523;51.880;12.630;2023-03-12T05:30:55;11.00;;;1.90;;
74967;SDS011;63523;51.880;12.630;2023-03-12T05:33:22;9.57;;;2.00;;
74967;SDS011;63523;51.880;12.630;2023-03-12T05:35:48;8.40;;;2.17;;
74967;SDS011;63523;51.880;12.630;2023-03-12T05:38:14;8.82;;;2.58;;
74967;SDS011;63523;51.880;12.630;2023-03-12T05:40:40;9.57;;;2.67;;
74967;SDS011;63523;51.880;12.630;2023-03-12T05:43:05;9.63;;;2.60;;
74967;SDS011;63523;51.880;12.630;2023-03-12T05:45:31;9.18;;;2.72;;
74967;SDS011;63523;51.880;12.630;2023-03-12T05:47:57;11.07;;;2.73;;
74967;SDS011;63523;51.880;12.630;2023-03-12T05:50:22;9.90;;;2.67;;
74967;SDS011;63523;51.880;12.630;2023-03-12T05:52:48;8.40;;;2.80;;
74967;SDS011;63523;51.880;12.630;2023-03-12T05:55:13;10.83;;;3.30;;
74967;SDS011;63523;51.880;12.630;2023-03-12T05:57:39;9.95;;;3.13;;
74967;SDS011;63523;51.880;12.630;2023-03-12T06:00:04;8.98;;;2.88;;
74967;SDS011;63523;51.880;12.630;2023-03-12T06:02:31;9.48;;;2.65;;
74967;SDS011;63523;51.880;12.630;2023-03-12T06:04:56;13.15;;;4.13;;
74967;SDS011;63523;51.880;12.630;2023-03-12T06:07:22;10.25;;;3.13;;
74967;SDS011;63523;51.880;12.630;2023-03-12T06:09:48;11.00;;;3.65;;
74967;SDS011;63523;51.880;12.630;2023-03-12T06:12:14;8.25;;;2.75;;
74967;SDS011;63523;51.880;12.630;2023-03-12T06:14:39;12.33;;;3.30;;
74967;SDS011;63523;51.880;12.630;2023-03-12T06:17:05;8.07;;;2.53;;
74967;SDS011;63523;51.880;12.630;2023-03-12T06:19:30;7.55;;;2.25;;
74967;SDS011;63523;51.880;12.630;2023-03-12T06:21:56;6.60;;;2.03;;
74967;SDS011;63523;51.880;12.630;2023-03-12T06:24:22;7.30;;;1.80;;
74967;SDS011;63523;51.880;12.630;2023-03-12T06:26:47;7.23;;;1.87;;
74967;SDS011;63523;51.880;12.630;2023-03-12T06:29:13;6.37;;;1.70;;
74967;SDS011;63523;51.880;12.630;2023-03-12T06:31:38;5.60;;;1.48;;
74967;SDS011;63523;51.880;12.630;2023-03-12T06:34:06;6.18;;;1.88;;
74967;SDS011;63523;51.880;12.630;2023-03-12T06:36:32;9.20;;;2.55;;
74967;SDS011;63523;51.880;12.630;2023-03-12T06:38:57;8.60;;;2.30;;
74967;SDS011;63523;51.880;12.630;2023-03-12T06:41:23;5.55;;;1.75;;
74967;SDS011;63523;51.880;12.630;2023-03-12T06:43:48;7.37;;;1.60;;
74967;SDS011;63523;51.880;12.630;2023-03-12T06:46:15;6.00;;;1.30;;
74967;SDS011;63523;51.880;12.630;2023-03-12T06:48:42;4.90;;;0.93;;
74967;SDS011;63523;51.880;12.630;2023-03-12T06:51:10;4.45;;;1.10;;
74967;SDS011;63523;51.880;12.630;2023-03-12T06:53:37;5.53;;;1.30;;
74967;SDS011;63523;51.880;12.630;2023-03-12T06:56:03;4.87;;;1.00;;
74967;SDS011;63523;51.880;12.630;2023-03-12T06:58:29;6.10;;;0.88;;
74967;SDS011;63523;51.880;12.630;2023-03-12T07:00:55;5.47;;;0.95;;
74967;SDS011;63523;51.880;12.630;2023-03-12T07:03:21;4.22;;;0.88;;
74967;SDS011;63523;51.880;12.630;2023-03-12T07:05:48;4.47;;;0.83;;
74967;SDS011;63523;51.880;12.630;2023-03-12T07:08:14;3.90;;;1.00;;
74967;SDS011;63523;51.880;12.630;2023-03-12T07:10:40;5.20;;;0.80;;
74967;SDS011;63523;51.880;12.630;2023-03-12T07:13:06;5.37;;;0.87;;
74967;SDS011;63523;51.880;12.630;2023-03-12T07:15:32;4.67;;;0.77;;
74967;SDS011;63523;51.880;12.630;2023-03-12T07:18:03;5.78;;;1.10;;
74967;SDS011;63523;51.880;12.630;2023-03-12T07:20:30;4.15;;;0.82;;
74967;SDS011;63523;51.880;12.630;2023-03-12T07:22:56;5.65;;;1.48;;
74967;SDS011;63523;51.880;12.630;2023-03-12T07:25:21;5.03;;;1.30;;
74967;SDS011;63523;51.880;12.630;2023-03-12T07:27:47;6.30;;;1.38;;
74967;SDS011;63523;51.880;12.630;2023-03-12T07:30:13;5.28;;;1.30;;
74967;SDS011;63523;51.880;12.630;2023-03-12T07:32:39;6.27;;;1.40;;
74967;SDS011;63523;51.880;12.630;2023-03-12T07:35:05;5.20;;;1.10;;
74967;SDS011;63523;51.880;12.630;2023-03-12T07:37:31;4.57;;;0.90;;
74967;SDS011;63523;51.880;12.630;2023-03-12T07:39:56;4.20;;;1.05;;
74967;SDS011;63523;51.880;12.630;2023-03-12T07:42:22;5.63;;;1.40;;
74967;SDS011;63523;51.880;12.630;2023-03-12T07:44:47;7.75;;;1.40;;
74967;SDS011;63523;51.880;12.630;2023-03-12T07:47:13;6.53;;;1.13;;
74967;SDS011;63523;51.880;12.630;2023-03-12T07:49:38;4.93;;;1.20;;
74967;SDS011;63523;51.880;12.630;2023-03-12T07:52:06;5.95;;;1.20;;
74967;SDS011;63523;51.880;12.630;2023-03-12T07:54:34;5.88;;;1.15;;
74967;SDS011;63523;51.880;12.630;2023-03-12T07:57:00;5.22;;;1.02;;
74967;SDS011;63523;51.880;12.630;2023-03-12T07:59:26;6.20;;;1.10;;
74967;SDS011;63523;51.880;12.630;2023-03-12T08:01:52;5.95;;;1.20;;
74967;SDS011;63523;51.880;12.630;2023-03-12T08:04:17;5.53;;;1.27;;
74967;SDS011;63523;51.880;12.630;2023-03-12T08:06:43;5.33;;;1.30;;
74967;SDS011;63523;51.880;12.630;2023-03-12T08:09:09;5.20;;;1.33;;
74967;SDS011;63523;51.880;12.630;2023-03-12T08:11:35;8.73;;;1.70;;
74967;SDS011;63523;51.880;12.630;2023-03-12T08:14:01;4.82;;;1.30;;
74967;SDS011;63523;51.880;12.630;2023-03-12T08:16:27;5.40;;;1.40;;
74967;SDS011;63523;51.880;12.630;2023-03-12T08:18:53;5.40;;;1.07;;
74967;SDS011;63523;51.880;12.630;2023-03-12T08:21:19;6.35;;;1.50;;
74967;SDS011;63523;51.880;12.630;2023-03-12T08:23:44;5.77;;;1.30;;
74967;SDS011;63523;51.880;12.630;2023-03-12T08:26:10;6.40;;;1.60;;
74967;SDS011;63523;51.880;12.630;2023-03-12T08:28:35;5.18;;;1.42;;
74967;SDS011;63523;51.880;12.630;2023-03-12T08:31:02;7.20;;;1.40;;
74967;SDS011;63523;51.880;12.630;2023-03-12T08:33:28;4.25;;;1.05;;
74967;SDS011;63523;51.880;12.630;2023-03-12T08:35:54;5.20;;;1.20;;
74967;SDS011;63523;51.880;12.630;2023-03-12T08:38:19;4.13;;;1.00;;
74967;SDS011;63523;51.880;12.630;2023-03-12T08:40:45;5.17;;;0.90;;
74967;SDS011;63523;51.880;12.630;2023-03-12T08:43:11;4.83;;;1.23;;
74967;SDS011;63523;51.880;12.630;2023-03-12T08:45:36;4.18;;;0.90;;
74967;SDS011;63523;51.880;12.630;2023-03-12T08:48:02;6.10;;;1.77;;
74967;SDS011;63523;51.880;12.630;2023-03-12T08:50:29;8.73;;;2.95;;
74967;SDS011;63523;51.880;12.630;2023-03-12T08:52:56;8.20;;;1.63;;
74967;SDS011;63523;51.880;12.630;2023-03-12T08:55:23;6.72;;;1.67;;
74967;SDS011;63523;51.880;12.630;2023-03-12T08:57:49;6.30;;;1.07;;
74967;SDS011;63523;51.880;12.630;2023-03-12T09:00:14;5.05;;;1.30;;
74967;SDS011;63523;51.880;12.630;2023-03-12T09:02:44;4.88;;;0.80;;
74967;SDS011;63523;51.880;12.630;2023-03-12T09:05:11;5.47;;;1.00;;
74967;SDS011;63523;51.880;12.630;2023-03-12T09:07:37;5.07;;;1.33;;
74967;SDS011;63523;51.880;12.630;2023-03-12T09:10:03;6.47;;;1.60;;
74967;SDS011;63523;51.880;12.630;2023-03-12T09:12:29;5.25;;;1.05;;
74967;SDS011;63523;51.880;12.630;2023-03-12T09:14:55;5.63;;;1.35;;
74967;SDS011;63523;51.880;12.630;2023-03-12T09:17:21;5.00;;;1.03;;
74967;SDS011;63523;51.880;12.630;2023-03-12T09:19:46;5.50;;;1.02;;
74967;SDS011;63523;51.880;12.630;2023-03-12T09:22:12;5.67;;;1.43;;
74967;SDS011;63523;51.880;12.630;2023-03-12T09:24:37;6.10;;;1.23;;
74967;SDS011;63523;51.880;12.630;2023-03-12T09:27:03;5.35;;;1.15;;
74967;SDS011;63523;51.880;12.630;2023-03-12T09:29:29;4.53;;;1.00;;
74967;SDS011;63523;51.880;12.630;2023-03-12T09:31:55;9.98;;;1.15;;
74967;SDS011;63523;51.880;12.630;2023-03-12T09:34:21;4.07;;;0.80;;
74967;SDS011;63523;51.880;12.630;2023-03-12T09:36:47;5.13;;;1.10;;
74967;SDS011;63523;51.880;12.630;2023-03-12T09:39:12;7.07;;;1.10;;
74967;SDS011;63523;51.880;12.630;2023-03-12T09:41:38;4.68;;;1.10;;
74967;SDS011;63523;51.880;12.630;2023-03-12T09:47:09;7.07;;;1.25;;
74967;SDS011;63523;51.880;12.630;2023-03-12T09:49:47;6.07;;;1.50;;
74967;SDS011;63523;51.880;12.630;2023-03-12T09:52:23;5.40;;;1.20;;
74967;SDS011;63523;51.880;12.630;2023-03-12T09:57:31;4.47;;;1.07;;
74967;SDS011;63523;51.880;12.630;2023-03-12T09:59:57;6.38;;;1.20;;
74967;SDS011;63523;51.880;12.630;2023-03-12T10:04:57;4.20;;;1.30;;
74967;SDS011;63523;51.880;12.630;2023-03-12T10:08:32;4.68;;;1.15;;
74967;SDS011;63523;51.880;12.630;2023-03-12T10:31:06;3.42;;;0.68;;
74967;SDS011;63523;51.880;12.630;2023-03-12T10:33:41;5.63;;;1.17;;
74967;SDS011;63523;51.880;12.630;2023-03-12T10:36:17;4.80;;;0.40;;
74967;SDS011;63523;51.880;12.630;2023-03-12T10:38:45;3.20;;;0.60;;
74967;SDS011;63523;51.880;12.630;2023-03-12T10:41:14;5.00;;;0.43;;
74967;SDS011;63523;51.880;12.630;2023-03-12T10:43:45;3.53;;;0.40;;
74967;SDS011;63523;51.880;12.630;2023-03-12T10:46:23;4.25;;;0.40;;
74967;SDS011;63523;51.880;12.630;2023-03-12T10:54:32;3.83;;;0.50;;
74967;SDS011;63523;51.880;12.630;2023-03-12T10:57:03;4.38;;;0.40;;
74967;SDS011;63523;51.880;12.630;2023-03-12T10:59:30;5.22;;;0.40;;
74967;SDS011;63523;51.880;12.630;2023-03-12T11:02:02;5.20;;;0.73;;
74967;SDS011;63523;51.880;12.630;2023-03-12T11:04:51;3.20;;;0.50;;
74967;SDS011;63523;51.880;12.630;2023-03-12T11:12:31;3.20;;;0.52;;
74967;SDS011;63523;51.880;12.630;2023-03-12T11:15:04;5.40;;;0.47;;
74967;SDS011;63523;51.880;12.630;2023-03-12T11:17:46;2.85;;;0.40;;
74967;SDS011;63523;51.880;12.630;2023-03-12T11:22:50;2.88;;;0.35;;
74967;SDS011;63523;51.880;12.630;2023-03-12T11:25:21;3.60;;;0.40;;
74967;SDS011;63523;51.880;12.630;2023-03-12T11:27:52;3.63;;;0.40;;
74967;SDS011;63523;51.880;12.630;2023-03-12T11:30:25;5.10;;;0.50;;
74967;SDS011;63523;51.880;12.630;2023-03-12T11:33:19;4.57;;;0.40;;
74967;SDS011;63523;51.880;12.630;2023-03-12T11:35:51;3.35;;;0.40;;
74967;SDS011;63523;51.880;12.630;2023-03-12T11:41:32;3.93;;;0.40;;
74967;SDS011;63523;51.880;12.630;2023-03-12T11:47:27;4.10;;;0.40;;
74967;SDS011;63523;51.880;12.630;2023-03-12T11:58:56;3.80;;;0.40;;
74967;SDS011;63523;51.880;12.630;2023-03-12T12:07:48;3.45;;;0.50;;
74967;SDS011;63523;51.880;12.630;2023-03-12T12:16:35;3.33;;;0.30;;
74967;SDS011;63523;51.880;12.630;2023-03-12T12:27:59;4.38;;;0.47;;
74967;SDS011;63523;51.880;12.630;2023-03-12T12:33:33;3.53;;;0.40;;
74967;SDS011;63523;51.880;12.630;2023-03-12T12:36:25;3.60;;;0.47;;
74967;SDS011;63523;51.880;12.630;2023-03-12T12:38:54;3.37;;;0.47;;
74967;SDS011;63523;51.880;12.630;2023-03-12T12:41:26;3.40;;;0.63;;
74967;SDS011;63523;51.880;12.630;2023-03-12T12:43:57;3.63;;;0.73;;
74967;SDS011;63523;51.880;12.630;2023-03-12T12:46:34;3.60;;;0.90;;
74967;SDS011;63523;51.880;12.630;2023-03-12T12:49:14;4.47;;;0.90;;
74967;SDS011;63523;51.880;12.630;2023-03-12T12:52:04;6.50;;;1.30;;
74967;SDS011;63523;51.880;12.630;2023-03-12T12:54:53;5.50;;;1.50;;
74967;SDS011;63523;51.880;12.630;2023-03-12T13:02:59;4.57;;;1.20;;
74967;SDS011;63523;51.880;12.630;2023-03-12T13:08:00;4.65;;;1.60;;
74967;SDS011;63523;51.880;12.630;2023-03-12T13:12:56;6.07;;;1.83;;
74967;SDS011;63523;51.880;12.630;2023-03-12T13:20:31;8.55;;;1.70;;
74967;SDS011;63523;51.880;12.630;2023-03-12T13:33:48;5.47;;;2.08;;
74967;SDS011;63523;51.880;12.630;2023-03-12T13:38:52;6.90;;;2.27;;
74967;SDS011;63523;51.880;12.630;2023-03-12T13:41:31;5.95;;;2.13;;
74967;SDS011;63523;51.880;12.630;2023-03-12T13:43:56;5.63;;;1.97;;
74967;SDS011;63523;51.880;12.630;2023-03-12T13:46:32;5.07;;;1.95;;
74967;SDS011;63523;51.880;12.630;2023-03-12T13:48:59;5.47;;;1.75;;
74967;SDS011;63523;51.880;12.630;2023-03-12T13:51:29;4.95;;;1.70;;
74967;SDS011;63523;51.880;12.630;2023-03-12T13:53:57;7.03;;;1.87;;
74967;SDS011;63523;51.880;12.630;2023-03-12T13:56:26;5.88;;;1.90;;
74967;SDS011;63523;51.880;12.630;2023-03-12T13:59:03;5.53;;;2.10;;
74967;SDS011;63523;51.880;12.630;2023-03-12T14:01:34;6.88;;;1.98;;
74967;SDS011;63523;51.880;12.630;2023-03-12T14:04:06;5.90;;;1.50;;
74967;SDS011;63523;51.880;12.630;2023-03-12T14:07:00;4.95;;;1.48;;
74967;SDS011;63523;51.880;12.630;2023-03-12T14:09:42;5.80;;;1.23;;
74967;SDS011;63523;51.880;12.630;2023-03-12T14:15:04;5.07;;;0.80;;
74967;SDS011;63523;51.880;12.630;2023-03-12T14:17:39;5.40;;;0.80;;
74967;SDS011;63523;51.880;12.630;2023-03-12T14:20:17;4.82;;;0.80;;
74967;SDS011;63523;51.880;12.630;2023-03-12T14:22:48;4.47;;;1.23;;
74967;SDS011;63523;51.880;12.630;2023-03-12T14:27:47;3.83;;;0.95;;
74967;SDS011;63523;51.880;12.630;2023-03-12T14:32:48;4.60;;;1.00;;
74967;SDS011;63523;51.880;12.630;2023-03-12T14:35:20;4.85;;;1.13;;
74967;SDS011;63523;51.880;12.630;2023-03-12T14:37:53;4.70;;;0.88;;
74967;SDS011;63523;51.880;12.630;2023-03-12T14:40:25;3.75;;;0.90;;
74967;SDS011;63523;51.880;12.630;2023-03-12T14:43:00;3.63;;;0.73;;
74967;SDS011;63523;51.880;12.630;2023-03-12T14:45:26;3.72;;;0.90;;
74967;SDS011;63523;51.880;12.630;2023-03-12T14:47:56;4.03;;;0.87;;
74967;SDS011;63523;51.880;12.630;2023-03-12T14:50:23;4.60;;;1.20;;
74967;SDS011;63523;51.880;12.630;2023-03-12T14:52:51;6.53;;;1.20;;
74967;SDS011;63523;51.880;12.630;2023-03-12T14:55:21;3.97;;;0.60;;
74967;SDS011;63523;51.880;12.630;2023-03-12T14:57:49;4.32;;;0.80;;
74967;SDS011;63523;51.880;12.630;2023-03-12T15:00:27;4.17;;;1.00;;
74967;SDS011;63523;51.880;12.630;2023-03-12T15:02:53;4.88;;;1.00;;
74967;SDS011;63523;51.880;12.630;2023-03-12T15:05:21;3.28;;;0.88;;
74967;SDS011;63523;51.880;12.630;2023-03-12T15:07:48;3.45;;;0.70;;
74967;SDS011;63523;51.880;12.630;2023-03-12T15:10:22;5.80;;;1.10;;
74967;SDS011;63523;51.880;12.630;2023-03-12T15:12:53;7.40;;;0.80;;
74967;SDS011;63523;51.880;12.630;2023-03-12T15:15:29;3.85;;;0.95;;
74967;SDS011;63523;51.880;12.630;2023-03-12T15:18:05;3.53;;;0.60;;
74967;SDS011;63523;51.880;12.630;2023-03-12T15:20:32;4.88;;;0.90;;
74967;SDS011;63523;51.880;12.630;2023-03-12T15:22:59;3.97;;;0.82;;
74967;SDS011;63523;51.880;12.630;2023-03-12T15:25:29;3.23;;;0.73;;
74967;SDS011;63523;51.880;12.630;2023-03-12T15:28:00;3.78;;;0.77;;
74967;SDS011;63523;51.880;12.630;2023-03-12T15:30:29;3.90;;;0.70;;
74967;SDS011;63523;51.880;12.630;2023-03-12T15:33:11;4.70;;;0.70;;
74967;SDS011;63523;51.880;12.630;2023-03-12T15:36:02;5.68;;;0.85;;
74967;SDS011;63523;51.880;12.630;2023-03-12T15:39:24;3.40;;;0.60;;
74967;SDS011;63523;51.880;12.630;2023-03-12T15:42:01;5.45;;;0.93;;
74967;SDS011;63523;51.880;12.630;2023-03-12T15:44:41;3.55;;;0.75;;
74967;SDS011;63523;51.880;12.630;2023-03-12T15:47:13;4.40;;;0.60;;
74967;SDS011;63523;51.880;12.630;2023-03-12T15:49:47;4.68;;;0.82;;
74967;SDS011;63523;51.880;12.630;2023-03-12T15:57:34;4.00;;;1.02;;
74967;SDS011;63523;51.880;12.630;2023-03-12T16:03:02;5.40;;;1.08;;
74967;SDS011;63523;51.880;12.630;2023-03-12T16:05:31;4.47;;;1.00;;
74967;SDS011;63523;51.880;12.630;2023-03-12T16:08:00;4.70;;;1.10;;
74967;SDS011;63523;51.880;12.630;2023-03-12T16:10:34;6.88;;;1.35;;
74967;SDS011;63523;51.880;12.630;2023-03-12T16:13:02;5.05;;;0.93;;
74967;SDS011;63523;51.880;12.630;2023-03-12T16:15:30;3.78;;;1.08;;
74967;SDS011;63523;51.880;12.630;2023-03-12T16:17:57;4.03;;;1.20;;
74967;SDS011;63523;51.880;12.630;2023-03-12T16:20:23;4.32;;;1.08;;
74967;SDS011;63523;51.880;12.630;2023-03-12T16:22:48;4.60;;;0.80;;
74967;SDS011;63523;51.880;12.630;2023-03-12T16:25:14;4.75;;;1.17;;
74967;SDS011;63523;51.880;12.630;2023-03-12T16:27:45;10.47;;;1.90;;
74967;SDS011;63523;51.880;12.630;2023-03-12T16:30:25;4.68;;;1.25;;
74967;SDS011;63523;51.880;12.630;2023-03-12T16:32:53;6.73;;;1.57;;
74967;SDS011;63523;51.880;12.630;2023-03-12T16:35:19;6.15;;;1.63;;
74967;SDS011;63523;51.880;12.630;2023-03-12T16:37:45;5.85;;;1.38;;
74967;SDS011;63523;51.880;12.630;2023-03-12T16:40:12;6.00;;;1.42;;
74967;SDS011;63523;51.880;12.630;2023-03-12T16:42:39;4.80;;;1.20;;
74967;SDS011;63523;51.880;12.630;2023-03-12T16:45:07;4.72;;;1.30;;
74967;SDS011;63523;51.880;12.630;2023-03-12T16:47:36;5.40;;;1.63;;
74967;SDS011;63523;51.880;12.630;2023-03-12T16:50:01;5.43;;;1.48;;
74967;SDS011;63523;51.880;12.630;2023-03-12T16:52:27;7.60;;;1.50;;
74967;SDS011;63523;51.880;12.630;2023-03-12T16:54:54;6.68;;;1.40;;